createdAt,value
2023-02-08T00:01:46.376Z,9.35
2023-02-08T00:04:13.280Z,9.38
2023-02-08T00:06:40.558Z,8.80
2023-02-08T00:09:07.669Z,9.48
2023-02-08T00:11:34.473Z,9.20
2023-02-08T00:14:01.254Z,9.65
2023-02-08T00:16:28.026Z,9.52
2023-02-08T00:18:54.867Z,9.70
2023-02-08T00:21:21.652Z,8.88
2023-02-08T00:23:48.752Z,8.45
2023-02-08T00:26:16.166Z,10.02
2023-02-08T00:28:43.016Z,8.73
2023-02-08T00:31:10.012Z,8.82
2023-02-08T00:33:36.950Z,9.07
2023-02-08T00:36:08.315Z,10.65
2023-02-08T00:38:35.784Z,9.75
2023-02-08T00:41:02.817Z,9.82
2023-02-08T00:43:29.821Z,8.82
2023-02-08T00:45:58.366Z,9.27
2023-02-08T00:48:26.343Z,10.70
2023-02-08T00:51:09.655Z,8.15
2023-02-08T00:53:41.891Z,9.32
2023-02-08T00:56:09.882Z,8.50
2023-02-08T00:58:36.838Z,9.85
2023-02-08T01:01:05.156Z,10.82
2023-02-08T01:03:38.404Z,10.02
2023-02-08T01:06:07.878Z,9.55
2023-02-08T01:08:35.282Z,9.68
2023-02-08T01:11:07.525Z,10.65
2023-02-08T01:13:34.905Z,9.35
2023-02-08T01:16:12.653Z,9.73
2023-02-08T01:18:41.674Z,8.55
2023-02-08T01:21:14.409Z,10.25
2023-02-08T01:23:42.121Z,10.63
2023-02-08T01:26:10.162Z,9.45
2023-02-08T01:28:37.557Z,10.10
2023-02-08T01:31:09.561Z,10.73
2023-02-08T01:33:36.531Z,10.68
2023-02-08T01:36:04.137Z,10.68
2023-02-08T01:38:31.222Z,8.98
2023-02-08T01:40:58.069Z,9.55
2023-02-08T01:43:33.467Z,10.25
2023-02-08T01:46:00.586Z,10.48
2023-02-08T01:48:37.861Z,10.10
2023-02-08T01:51:08.712Z,11.13
2023-02-08T01:53:36.398Z,8.60
2023-02-08T01:56:08.182Z,9.98
2023-02-08T01:58:40.442Z,9.77
2023-02-08T02:01:08.290Z,10.85
2023-02-08T02:03:35.182Z,10.13
2023-02-08T02:06:10.495Z,10.48
2023-02-08T02:08:38.108Z,11.30
2023-02-08T02:11:05.029Z,10.63
2023-02-08T02:13:32.765Z,8.82
2023-02-08T02:15:59.550Z,10.80
2023-02-08T02:18:29.650Z,10.70
2023-02-08T02:21:11.328Z,11.35
2023-02-08T02:23:47.130Z,9.60
2023-02-08T02:26:47.680Z,9.70
2023-02-08T02:29:47.842Z,10.52
2023-02-08T02:32:38.060Z,9.60
2023-02-08T02:35:15.859Z,9.60
2023-02-08T02:37:45.607Z,9.80
2023-02-08T02:40:19.863Z,9.60
2023-02-08T02:43:08.279Z,10.65
2023-02-08T02:46:16.909Z,9.75
2023-02-08T02:48:52.790Z,9.30
2023-02-08T02:51:27.673Z,9.35
2023-02-08T02:54:08.683Z,10.82
2023-02-08T02:56:39.393Z,9.85
2023-02-08T02:59:08.692Z,9.88
2023-02-08T03:01:36.170Z,9.60
2023-02-08T03:04:35.281Z,9.55
2023-02-08T03:07:20.326Z,8.50
2023-02-08T03:10:03.474Z,9.45
2023-02-08T03:12:37.788Z,9.75
2023-02-08T03:15:28.697Z,10.98
2023-02-08T03:18:23.513Z,11.25
2023-02-08T03:21:08.849Z,10.77
2023-02-08T03:23:57.517Z,11.13
2023-02-08T03:26:35.981Z,9.25
2023-02-08T03:29:05.480Z,9.73
2023-02-08T03:32:00.085Z,10.25
2023-02-08T03:34:35.564Z,11.05
2023-02-08T03:37:12.123Z,8.73
2023-02-08T03:39:40.871Z,9.25
2023-02-08T03:42:19.603Z,8.57
2023-02-08T03:44:53.303Z,9.95
2023-02-08T03:47:24.662Z,11.43
2023-02-08T03:49:54.740Z,9.65
2023-02-08T03:52:22.703Z,10.50
2023-02-08T03:54:58.731Z,10.32
2023-02-08T03:57:30.512Z,10.80
2023-02-08T04:00:05.883Z,9.25
2023-02-08T04:02:39.229Z,11.15
2023-02-08T04:05:07.490Z,10.85
2023-02-08T04:07:34.671Z,8.38
2023-02-08T04:10:02.198Z,9.10
2023-02-08T04:12:29.012Z,10.55
2023-02-08T04:14:55.863Z,9.60
2023-02-08T04:17:22.733Z,11.73
2023-02-08T04:19:49.525Z,10.45
2023-02-08T04:22:16.361Z,9.57
2023-02-08T04:24:43.133Z,12.02
2023-02-08T04:27:09.978Z,8.60
2023-02-08T04:29:36.808Z,11.15
2023-02-08T04:32:05.047Z,11.00
2023-02-08T04:34:31.827Z,11.98
2023-02-08T04:36:58.616Z,9.95
2023-02-08T04:39:25.514Z,10.57
2023-02-08T04:41:52.345Z,7.78
2023-02-08T04:44:19.176Z,9.75
2023-02-08T04:46:45.969Z,5.28
2023-02-08T04:49:12.829Z,10.23
2023-02-08T04:51:39.669Z,6.18
2023-02-08T04:54:06.481Z,10.15
2023-02-08T04:56:33.377Z,9.82
2023-02-08T04:59:01.117Z,7.57
2023-02-08T05:01:27.984Z,11.43
2023-02-08T05:03:55.074Z,11.50
2023-02-08T05:06:21.858Z,9.32
2023-02-08T05:08:48.704Z,10.02
2023-02-08T05:11:22.640Z,11.80
2023-02-08T05:13:50.026Z,5.40
2023-02-08T05:16:17.248Z,10.52
2023-02-08T05:18:44.681Z,10.82
2023-02-08T05:21:11.579Z,12.40
2023-02-08T05:23:38.530Z,9.80
2023-02-08T05:26:11.316Z,9.07
2023-02-08T05:28:38.367Z,13.43
2023-02-08T05:31:25.676Z,10.73
2023-02-08T05:33:53.528Z,11.88
2023-02-08T05:36:21.282Z,9.65
2023-02-08T05:38:48.147Z,10.18
2023-02-08T05:41:15.728Z,10.48
2023-02-08T05:43:42.566Z,9.20
2023-02-08T05:46:09.467Z,11.45
2023-02-08T05:48:36.262Z,9.25
2023-02-08T05:51:03.120Z,9.68
2023-02-08T05:53:30.583Z,13.65
2023-02-08T05:55:58.166Z,10.65
2023-02-08T05:58:25.482Z,10.30
2023-02-08T06:00:53.515Z,12.05
2023-02-08T06:03:20.695Z,12.40
2023-02-08T06:05:48.005Z,10.75
2023-02-08T06:08:15.616Z,9.82
2023-02-08T06:10:42.833Z,6.95
2023-02-08T06:13:09.724Z,6.72
2023-02-08T06:15:36.529Z,4.43
2023-02-08T06:18:03.442Z,9.77
2023-02-08T06:20:30.221Z,7.25
2023-02-08T06:22:56.982Z,9.02
2023-02-08T06:25:23.830Z,6.55
2023-02-08T06:27:50.635Z,10.32
2023-02-08T06:30:17.541Z,6.78
2023-02-08T06:32:44.311Z,9.55
2023-02-08T06:35:14.688Z,7.95
2023-02-08T06:37:41.467Z,9.63
2023-02-08T06:40:09.129Z,7.30
2023-02-08T06:42:36.161Z,6.75
2023-02-08T06:45:03.014Z,9.02
2023-02-08T06:47:30.675Z,8.60
2023-02-08T06:49:57.484Z,5.68
2023-02-08T06:52:25.881Z,11.98
2023-02-08T06:54:52.702Z,10.38
2023-02-08T06:57:19.509Z,9.80
2023-02-08T06:59:46.431Z,12.23
2023-02-08T07:02:15.429Z,7.88
2023-02-08T07:04:42.619Z,12.55
2023-02-08T07:07:09.753Z,12.70
2023-02-08T07:09:36.832Z,12.35
2023-02-08T07:12:05.264Z,13.07
2023-02-08T07:14:36.441Z,12.23
2023-02-08T07:17:04.764Z,12.65
2023-02-08T07:19:31.941Z,11.40
2023-02-08T07:22:06.682Z,15.38
2023-02-08T07:24:39.431Z,8.80
2023-02-08T07:27:08.933Z,15.20
2023-02-08T07:29:36.118Z,15.57
2023-02-08T07:32:04.006Z,14.68
2023-02-08T07:34:33.305Z,15.35
2023-02-08T07:37:00.552Z,15.65
2023-02-08T07:39:27.597Z,16.08
2023-02-08T07:41:54.600Z,16.63
2023-02-08T07:44:21.396Z,16.33
2023-02-08T07:46:48.277Z,16.35
2023-02-08T07:49:15.221Z,15.10
2023-02-08T07:51:42.163Z,16.25
2023-02-08T07:54:09.014Z,17.55
2023-02-08T07:56:35.915Z,16.63
2023-02-08T07:59:02.736Z,15.25
2023-02-08T08:01:29.680Z,16.20
2023-02-08T08:03:56.607Z,14.43
2023-02-08T08:06:23.946Z,15.57
2023-02-08T08:08:51.594Z,15.43
2023-02-08T08:11:21.094Z,16.88
2023-02-08T08:13:48.272Z,14.95
2023-02-08T08:16:15.234Z,15.80
2023-02-08T08:18:42.493Z,16.30
2023-02-08T08:21:11.636Z,16.07
2023-02-08T08:23:39.624Z,16.97
2023-02-08T08:26:19.100Z,17.00
2023-02-08T08:28:46.916Z,17.67
2023-02-08T08:31:17.049Z,16.77
2023-02-08T08:33:44.525Z,16.90
2023-02-08T08:36:11.468Z,16.00
2023-02-08T08:38:41.911Z,17.60
2023-02-08T08:41:14.931Z,16.80
2023-02-08T08:43:42.127Z,16.20
2023-02-08T08:46:10.157Z,16.57
2023-02-08T08:48:38.846Z,16.13
2023-02-08T08:51:06.420Z,16.10
2023-02-08T08:53:33.565Z,16.47
2023-02-08T08:56:00.990Z,15.83
2023-02-08T08:58:27.878Z,12.27
2023-02-08T09:01:00.299Z,11.37
2023-02-08T09:03:28.242Z,14.90
2023-02-08T09:05:55.480Z,15.07
2023-02-08T09:08:22.336Z,15.23
2023-02-08T09:10:49.089Z,16.90
2023-02-08T09:13:20.110Z,13.57
2023-02-08T09:15:48.258Z,15.80
2023-02-08T09:18:15.313Z,15.87
2023-02-08T09:20:42.561Z,15.97
2023-02-08T09:23:09.619Z,14.53
2023-02-08T09:25:37.461Z,14.43
2023-02-08T09:28:04.869Z,13.97
2023-02-08T09:30:32.317Z,14.93
2023-02-08T09:32:59.360Z,16.73
2023-02-08T09:35:26.186Z,16.53
2023-02-08T09:37:55.427Z,15.53
2023-02-08T09:40:28.730Z,15.77
2023-02-08T09:43:09.074Z,16.63
2023-02-08T09:45:59.192Z,17.63
2023-02-08T09:48:35.154Z,13.53
2023-02-08T09:51:15.194Z,16.10
2023-02-08T09:53:47.398Z,17.03
2023-02-08T09:56:19.479Z,16.50
2023-02-08T09:58:54.659Z,15.57
2023-02-08T10:01:31.325Z,17.03
2023-02-08T10:04:12.413Z,15.90
2023-02-08T10:06:39.256Z,16.90
2023-02-08T10:09:13.954Z,15.80
2023-02-08T10:12:05.810Z,16.60
2023-02-08T10:14:44.763Z,15.83
2023-02-08T10:17:41.435Z,15.70
2023-02-08T10:20:26.836Z,16.07
2023-02-08T10:22:59.614Z,11.20
2023-02-08T10:25:51.171Z,12.40
2023-02-08T10:28:39.499Z,14.97
2023-02-08T10:31:24.741Z,15.50
2023-02-08T10:34:14.424Z,14.77
2023-02-08T10:36:42.170Z,14.20
2023-02-08T10:39:24.339Z,15.30
2023-02-08T10:41:51.660Z,17.10
2023-02-08T10:44:35.810Z,13.97
2023-02-08T10:47:41.781Z,11.07
2023-02-08T10:50:29.924Z,16.30
2023-02-08T10:52:57.173Z,15.80
2023-02-08T10:55:24.136Z,16.17
2023-02-08T10:57:54.729Z,14.57
2023-02-08T11:00:26.956Z,14.67
2023-02-08T11:02:57.435Z,14.23
2023-02-08T11:05:38.662Z,16.60
2023-02-08T11:08:28.048Z,17.10
2023-02-08T11:11:07.405Z,16.10
2023-02-08T11:13:41.580Z,15.43
2023-02-08T11:16:12.841Z,16.50
2023-02-08T11:18:53.244Z,17.40
2023-02-08T11:21:34.860Z,16.47
2023-02-08T11:24:10.014Z,17.67
2023-02-08T11:26:38.409Z,16.77
2023-02-08T11:29:16.983Z,15.63
2023-02-08T11:32:17.287Z,16.60
2023-02-08T11:34:44.124Z,16.13
2023-02-08T11:37:26.588Z,17.60
2023-02-08T11:40:00.737Z,18.20
2023-02-08T11:42:36.161Z,14.00
2023-02-08T11:45:04.878Z,17.43
2023-02-08T11:47:37.561Z,18.13
2023-02-08T11:50:08.907Z,17.67
2023-02-08T11:52:40.708Z,15.90
2023-02-08T11:55:19.753Z,17.50
2023-02-08T11:57:54.976Z,17.97
2023-02-08T12:00:31.756Z,17.93
2023-02-08T12:03:22.686Z,17.53
2023-02-08T12:06:07.815Z,18.00
2023-02-08T12:08:47.710Z,18.17
2023-02-08T12:11:36.855Z,17.23
2023-02-08T12:14:39.353Z,16.70
2023-02-08T12:17:11.906Z,17.63
2023-02-08T12:20:09.076Z,16.60
2023-02-08T12:22:42.035Z,19.00
2023-02-08T12:25:34.525Z,16.73
2023-02-08T12:28:25.344Z,18.50
2023-02-08T12:31:21.296Z,16.73
2023-02-08T12:34:08.687Z,15.97
2023-02-08T12:36:49.754Z,15.10
2023-02-08T12:39:35.201Z,15.60
2023-02-08T12:42:16.232Z,17.73
2023-02-08T12:44:51.967Z,18.30
2023-02-08T12:47:18.685Z,16.50
2023-02-08T12:49:51.444Z,17.30
2023-02-08T12:52:36.276Z,15.73
2023-02-08T12:55:17.446Z,17.80
2023-02-08T12:57:49.604Z,18.50
2023-02-08T13:00:25.501Z,17.37
2023-02-08T13:02:58.080Z,17.70
2023-02-08T13:05:30.380Z,19.10
2023-02-08T13:08:05.196Z,17.87
2023-02-08T13:10:40.588Z,17.60
2023-02-08T13:13:48.994Z,17.00
2023-02-08T13:16:26.585Z,17.87
2023-02-08T13:18:58.028Z,16.20
2023-02-08T13:21:30.634Z,18.10
2023-02-08T13:23:58.885Z,15.10
2023-02-08T13:26:33.020Z,16.17
2023-02-08T13:29:03.428Z,15.30
2023-02-08T13:31:40.008Z,15.57
2023-02-08T13:34:25.235Z,14.97
2023-02-08T13:37:01.978Z,17.40
2023-02-08T13:39:42.053Z,15.53
2023-02-08T13:42:27.156Z,15.37
2023-02-08T13:44:56.280Z,16.37
2023-02-08T13:47:27.397Z,17.27
2023-02-08T13:49:55.539Z,16.80
2023-02-08T13:52:47.018Z,16.47
2023-02-08T13:55:47.694Z,16.10
2023-02-08T13:58:14.417Z,14.70
2023-02-08T14:01:02.075Z,16.67
2023-02-08T14:03:31.128Z,15.77
2023-02-08T14:06:06.058Z,14.73
2023-02-08T14:08:39.266Z,13.60
2023-02-08T14:11:17.983Z,17.00
2023-02-08T14:13:50.299Z,11.50
2023-02-08T14:16:29.764Z,16.30
2023-02-08T14:19:02.169Z,15.43
2023-02-08T14:21:34.789Z,13.70
2023-02-08T14:24:07.901Z,14.20
2023-02-08T14:26:36.607Z,14.10
2023-02-08T14:29:06.415Z,14.80
2023-02-08T14:31:40.742Z,13.47
2023-02-08T14:34:34.964Z,14.57
2023-02-08T14:37:10.557Z,13.83
2023-02-08T14:39:37.618Z,14.27
2023-02-08T14:42:08.954Z,13.80
2023-02-08T14:44:38.715Z,14.00
2023-02-08T14:47:26.893Z,14.30
2023-02-08T14:50:17.248Z,12.67
2023-02-08T14:52:53.152Z,14.90
2023-02-08T14:55:31.809Z,15.35
2023-02-08T14:58:01.136Z,14.60
2023-02-08T15:00:34.358Z,13.90
2023-02-08T15:03:03.918Z,11.43
2023-02-08T15:05:35.865Z,13.13
2023-02-08T15:08:03.540Z,11.63
2023-02-08T15:10:33.153Z,9.95
2023-02-08T15:13:06.353Z,12.55
2023-02-08T15:15:34.288Z,10.88
2023-02-08T15:18:03.358Z,10.48
2023-02-08T15:20:32.724Z,9.32
2023-02-08T15:23:18.850Z,12.18
2023-02-08T15:25:58.762Z,12.88
2023-02-08T15:28:29.478Z,11.75
2023-02-08T15:31:00.728Z,11.73
2023-02-08T15:33:28.080Z,10.25
2023-02-08T15:36:08.375Z,12.68
2023-02-08T15:38:38.681Z,12.30
2023-02-08T15:41:14.640Z,10.98
2023-02-08T15:43:42.814Z,11.43
2023-02-08T15:46:25.662Z,11.77
2023-02-08T15:48:53.855Z,9.45
2023-02-08T15:51:23.289Z,12.07
2023-02-08T15:53:53.333Z,11.13
2023-02-08T15:56:37.786Z,9.95
2023-02-08T15:59:14.263Z,11.88
2023-02-08T16:01:41.168Z,11.02
2023-02-08T16:04:12.576Z,9.90
2023-02-08T16:06:46.333Z,11.10
2023-02-08T16:09:27.299Z,12.05
2023-02-08T16:11:58.160Z,12.00
2023-02-08T16:14:29.330Z,10.40
2023-02-08T16:16:58.451Z,11.45
2023-02-08T16:19:28.837Z,11.95
2023-02-08T16:22:15.731Z,10.88
2023-02-08T16:24:42.545Z,8.40
2023-02-08T16:27:27.030Z,11.18
2023-02-08T16:29:54.888Z,10.65
2023-02-08T16:32:31.562Z,11.20
2023-02-08T16:34:58.767Z,11.50
2023-02-08T16:37:31.404Z,11.65
2023-02-08T16:40:27.392Z,11.15
2023-02-08T16:43:23.110Z,12.50
2023-02-08T16:46:11.754Z,11.50
2023-02-08T16:48:41.256Z,10.75
2023-02-08T16:51:16.788Z,10.35
2023-02-08T16:53:43.997Z,12.73
2023-02-08T16:56:11.533Z,11.52
2023-02-08T16:58:38.917Z,12.52
2023-02-08T17:01:06.353Z,10.60
2023-02-08T17:03:33.329Z,11.90
2023-02-08T17:06:00.988Z,10.85
2023-02-08T17:08:28.015Z,9.60
2023-02-08T17:10:58.948Z,7.78
2023-02-08T17:13:29.176Z,9.07
2023-02-08T17:15:57.728Z,9.10
2023-02-08T17:18:24.542Z,9.73
2023-02-08T17:20:57.716Z,10.85
2023-02-08T17:23:24.753Z,11.25
2023-02-08T17:25:52.419Z,10.95
2023-02-08T17:28:21.152Z,10.07
2023-02-08T17:30:49.659Z,9.25
2023-02-08T17:33:19.600Z,10.63
2023-02-08T17:35:48.879Z,9.05
2023-02-08T17:38:16.095Z,10.07
2023-02-08T17:40:43.612Z,12.20
2023-02-08T17:43:12.123Z,10.35
2023-02-08T17:45:40.294Z,11.23
2023-02-08T17:48:07.913Z,12.15
2023-02-08T17:50:35.465Z,10.68
2023-02-08T17:53:03.997Z,11.23
2023-02-08T17:55:31.318Z,11.32
2023-02-08T17:57:58.439Z,10.40
2023-02-08T18:00:25.960Z,10.38
2023-02-08T18:02:54.809Z,9.73
2023-02-08T18:05:24.350Z,10.57
2023-02-08T18:07:53.148Z,9.85
2023-02-08T18:10:20.413Z,9.13
2023-02-08T18:12:47.338Z,5.55
2023-02-08T18:15:16.927Z,9.43
2023-02-08T18:17:44.533Z,9.70
2023-02-08T18:20:14.337Z,6.75
2023-02-08T18:22:44.747Z,10.05
2023-02-08T18:25:12.678Z,10.38
2023-02-08T18:27:40.047Z,11.18
2023-02-08T18:30:07.529Z,7.18
2023-02-08T18:32:34.435Z,10.38
2023-02-08T18:35:03.561Z,10.75
2023-02-08T18:37:33.224Z,10.50
2023-02-08T18:40:00.505Z,10.13
2023-02-08T18:42:27.546Z,11.45
2023-02-08T18:44:54.462Z,10.23
2023-02-08T18:47:21.406Z,8.80
2023-02-08T18:49:52.551Z,9.98
2023-02-08T18:52:19.414Z,10.88
2023-02-08T18:54:46.202Z,10.50
2023-02-08T18:57:14.125Z,10.25
2023-02-08T18:59:41.010Z,9.75
2023-02-08T19:02:10.389Z,11.25
2023-02-08T19:04:39.476Z,9.95
2023-02-08T19:07:07.203Z,9.45
2023-02-08T19:09:38.142Z,9.32
2023-02-08T19:12:07.584Z,10.43
2023-02-08T19:14:34.859Z,10.57
2023-02-08T19:17:02.352Z,8.82
2023-02-08T19:19:29.440Z,9.60
2023-02-08T19:21:56.267Z,8.95
2023-02-08T19:24:23.457Z,8.90
2023-02-08T19:26:50.409Z,8.05
2023-02-08T19:29:21.914Z,9.73
2023-02-08T19:31:50.436Z,8.60
2023-02-08T19:34:18.080Z,7.93
2023-02-08T19:36:49.520Z,10.35
2023-02-08T19:39:19.144Z,7.75
2023-02-08T19:41:46.510Z,10.43
2023-02-08T19:44:16.713Z,8.15
2023-02-08T19:46:55.932Z,8.68
2023-02-08T19:49:25.768Z,8.60
2023-02-08T19:51:53.063Z,9.90
2023-02-08T19:54:20.456Z,9.18
2023-02-08T19:56:50.300Z,8.25
2023-02-08T19:59:35.560Z,8.88
2023-02-08T20:02:02.741Z,9.18
2023-02-08T20:04:29.654Z,8.48
2023-02-08T20:06:56.481Z,7.65
2023-02-08T20:09:23.400Z,8.63
2023-02-08T20:11:57.181Z,10.27
2023-02-08T20:14:25.533Z,9.27
2023-02-08T20:16:52.638Z,8.80
2023-02-08T20:19:19.445Z,8.02
2023-02-08T20:21:46.481Z,9.02
2023-02-08T20:24:13.924Z,9.05
2023-02-08T20:26:43.199Z,9.52
2023-02-08T20:29:11.927Z,8.02
2023-02-08T20:31:42.613Z,8.10
2023-02-08T20:34:13.192Z,7.85
2023-02-08T20:36:45.119Z,8.57
2023-02-08T20:39:18.875Z,8.85
2023-02-08T20:41:45.876Z,8.35
2023-02-08T20:44:13.801Z,8.80
2023-02-08T20:46:41.300Z,9.75
2023-02-08T20:49:08.072Z,9.02
2023-02-08T20:51:35.812Z,9.73
2023-02-08T20:54:03.465Z,8.80
2023-02-08T20:56:33.700Z,9.65
2023-02-08T20:59:10.593Z,9.60
2023-02-08T21:01:37.513Z,8.93
2023-02-08T21:04:05.222Z,8.50
2023-02-08T21:06:34.811Z,9.60
2023-02-08T21:09:08.005Z,9.35
2023-02-08T21:11:35.408Z,9.77
2023-02-08T21:14:03.460Z,7.68
2023-02-08T21:16:30.856Z,8.70
2023-02-08T21:18:58.434Z,7.90
2023-02-08T21:21:25.501Z,8.40
2023-02-08T21:23:52.366Z,7.95
2023-02-08T21:26:21.153Z,8.38
2023-02-08T21:28:51.739Z,8.63
2023-02-08T21:31:22.092Z,7.18
2023-02-08T21:33:50.107Z,8.18
2023-02-08T21:36:19.520Z,7.75
2023-02-08T21:38:47.217Z,8.80
2023-02-08T21:41:23.250Z,8.05
2023-02-08T21:43:52.600Z,8.75
2023-02-08T21:46:19.532Z,8.15
2023-02-08T21:49:05.659Z,8.07
2023-02-08T21:51:51.148Z,8.40
2023-02-08T21:54:39.372Z,8.52
2023-02-08T21:57:08.557Z,7.53
2023-02-08T21:59:37.118Z,8.05
2023-02-08T22:02:05.903Z,7.93
2023-02-08T22:04:37.100Z,8.25
2023-02-08T22:07:04.666Z,7.90
2023-02-08T22:09:31.586Z,7.20
2023-02-08T22:11:58.907Z,7.20
2023-02-08T22:14:25.790Z,7.00
2023-02-08T22:16:52.638Z,7.28
2023-02-08T22:19:19.470Z,6.80
2023-02-08T22:21:46.391Z,7.68
2023-02-08T22:24:13.200Z,7.38
2023-02-08T22:26:40.086Z,6.63
2023-02-08T22:29:06.854Z,6.80
2023-02-08T22:31:33.819Z,6.72
2023-02-08T22:34:00.846Z,6.72
2023-02-08T22:36:27.791Z,6.88
2023-02-08T22:38:54.704Z,6.13
2023-02-08T22:41:22.056Z,6.47
2023-02-08T22:43:49.324Z,6.60
2023-02-08T22:46:16.153Z,6.75
2023-02-08T22:48:43.029Z,6.78
2023-02-08T22:51:13.505Z,6.32
2023-02-08T22:53:40.614Z,5.80
2023-02-08T22:56:07.538Z,7.00
2023-02-08T22:58:34.349Z,6.78
2023-02-08T23:01:01.150Z,6.40
2023-02-08T23:03:28.454Z,6.15
2023-02-08T23:05:55.275Z,5.82
2023-02-08T23:08:22.746Z,6.03
2023-02-08T23:10:49.585Z,7.22
2023-02-08T23:13:16.553Z,5.95
2023-02-08T23:15:44.874Z,6.57
2023-02-08T23:18:12.081Z,5.80
2023-02-08T23:20:40.465Z,6.32
2023-02-08T23:23:07.486Z,6.72
2023-02-08T23:25:37.951Z,5.28
2023-02-08T23:28:04.933Z,5.70
2023-02-08T23:30:31.798Z,6.43
2023-02-08T23:32:58.611Z,6.25
2023-02-08T23:35:26.035Z,6.03
2023-02-08T23:37:52.824Z,5.32
2023-02-08T23:40:19.697Z,5.50
2023-02-08T23:42:46.481Z,5.72
2023-02-08T23:45:13.678Z,5.85
2023-02-08T23:47:40.999Z,4.75
2023-02-08T23:50:09.003Z,7.30
2023-02-08T23:52:36.576Z,6.22
2023-02-08T23:55:03.926Z,6.28
2023-02-08T23:57:35.314Z,6.32
